createdAt,value
2018-02-19T00:00:55.415Z,32.40
2018-02-19T00:03:24.452Z,32.03
2018-02-19T00:05:53.471Z,33.10
2018-02-19T00:08:21.712Z,33.83
2018-02-19T00:10:49.975Z,31.33
2018-02-19T00:13:18.214Z,32.13
2018-02-19T00:15:46.462Z,32.17
2018-02-19T00:18:14.721Z,32.93
2018-02-19T00:20:43.010Z,32.00
2018-02-19T00:23:12.011Z,30.87
2018-02-19T00:25:40.424Z,31.60
2018-02-19T00:28:08.673Z,32.80
2018-02-19T00:30:36.912Z,33.03
2018-02-19T00:33:06.134Z,32.33
2018-02-19T00:35:34.435Z,32.17
2018-02-19T00:38:02.754Z,32.00
2018-02-19T00:40:32.900Z,33.50
2018-02-19T00:43:01.291Z,34.17
2018-02-19T00:45:29.551Z,33.60
2018-02-19T00:48:08.552Z,32.43
2018-02-19T00:50:36.772Z,32.63
2018-02-19T00:53:05.038Z,33.73
2018-02-19T00:55:33.297Z,32.87
2018-02-19T00:58:01.672Z,33.30
2018-02-19T01:00:30.673Z,33.40
2018-02-19T01:02:58.923Z,32.20
2018-02-19T01:05:28.027Z,33.93
2018-02-19T01:07:57.304Z,32.47
2018-02-19T01:10:25.511Z,33.47
2018-02-19T01:12:53.794Z,34.20
2018-02-19T01:15:22.211Z,34.50
2018-02-19T01:17:50.513Z,32.90
2018-02-19T01:20:18.759Z,33.00
2018-02-19T01:22:47.006Z,32.87
2018-02-19T01:25:15.258Z,34.83
2018-02-19T01:27:43.516Z,34.13
2018-02-19T01:30:12.541Z,33.83
2018-02-19T01:32:40.782Z,34.57
2018-02-19T01:35:09.864Z,36.17
2018-02-19T01:37:38.106Z,34.67
2018-02-19T01:40:06.400Z,35.47
2018-02-19T01:42:34.679Z,37.00
2018-02-19T01:45:03.007Z,37.33
2018-02-19T01:47:31.260Z,37.53
2018-02-19T01:50:17.643Z,38.10
2018-02-19T01:52:45.906Z,39.63
2018-02-19T01:55:14.335Z,37.20
2018-02-19T01:57:42.669Z,38.20
2018-02-19T02:00:10.900Z,37.93
2018-02-19T02:02:39.158Z,37.63
2018-02-19T02:05:07.418Z,37.77
2018-02-19T02:07:35.783Z,37.07
2018-02-19T02:10:04.834Z,37.57
2018-02-19T02:12:33.137Z,37.83
2018-02-19T02:15:01.415Z,38.93
2018-02-19T02:17:29.642Z,40.07
2018-02-19T02:19:58.076Z,37.10
2018-02-19T02:22:27.133Z,40.27
2018-02-19T02:24:55.531Z,39.67
2018-02-19T02:27:23.799Z,40.10
2018-02-19T02:29:52.095Z,36.80
2018-02-19T02:32:21.118Z,39.10
2018-02-19T02:34:49.396Z,40.53
2018-02-19T02:37:17.787Z,40.57
2018-02-19T02:39:46.071Z,38.07
2018-02-19T02:42:14.319Z,34.63
2018-02-19T02:44:42.583Z,38.17
2018-02-19T02:47:10.834Z,39.40
2018-02-19T02:49:39.870Z,41.10
2018-02-19T02:52:08.199Z,39.13
2018-02-19T02:54:36.419Z,41.13
2018-02-19T02:57:04.682Z,43.83
2018-02-19T02:59:33.123Z,42.27
2018-02-19T03:02:01.356Z,41.67
2018-02-19T03:04:29.618Z,42.37
2018-02-19T03:06:57.873Z,42.20
2018-02-19T03:09:26.129Z,44.77
2018-02-19T03:11:55.172Z,40.73
2018-02-19T03:14:23.423Z,41.63
2018-02-19T03:16:51.695Z,43.17
2018-02-19T03:19:19.961Z,43.37
2018-02-19T03:21:48.279Z,39.20
2018-02-19T03:24:16.592Z,42.83
2018-02-19T03:26:44.847Z,43.60
2018-02-19T03:29:13.110Z,44.57
2018-02-19T03:31:41.414Z,44.57
2018-02-19T03:34:10.627Z,44.07
2018-02-19T03:36:39.644Z,43.00
2018-02-19T03:39:08.032Z,42.47
2018-02-19T03:41:36.407Z,43.53
2018-02-19T03:44:04.651Z,43.77
2018-02-19T03:46:33.766Z,44.83
2018-02-19T03:49:02.110Z,41.33
2018-02-19T03:51:30.335Z,41.17
2018-02-19T03:53:58.579Z,42.70
2018-02-19T03:56:26.831Z,41.53
2018-02-19T03:58:55.843Z,41.50
2018-02-19T04:01:24.232Z,41.07
2018-02-19T04:03:52.564Z,43.30
2018-02-19T04:06:20.846Z,44.67
2018-02-19T04:08:49.107Z,43.40
2018-02-19T04:11:17.370Z,45.83
2018-02-19T04:13:45.631Z,44.83
2018-02-19T04:16:13.880Z,46.33
2018-02-19T04:18:42.321Z,50.77
2018-02-19T04:21:10.590Z,51.67
2018-02-19T04:23:38.851Z,53.50
2018-02-19T04:26:08.611Z,53.23
2018-02-19T04:28:36.866Z,52.57
2018-02-19T04:31:05.143Z,49.60
2018-02-19T04:33:33.391Z,49.13
2018-02-19T04:36:01.692Z,46.23
2018-02-19T04:38:29.930Z,48.30
2018-02-19T04:40:58.189Z,47.77
2018-02-19T04:43:26.441Z,42.00
2018-02-19T04:45:54.704Z,42.47
2018-02-19T04:48:22.976Z,47.20
2018-02-19T04:50:51.987Z,48.23
2018-02-19T04:53:20.250Z,45.10
2018-02-19T04:55:48.494Z,45.13
2018-02-19T04:58:17.499Z,49.63
2018-02-19T05:00:45.774Z,48.00
2018-02-19T05:03:14.032Z,49.40
2018-02-19T05:05:42.287Z,50.50
2018-02-19T05:08:10.687Z,52.83
2018-02-19T05:10:38.934Z,45.97
2018-02-19T05:13:07.335Z,54.57
2018-02-19T05:15:35.600Z,50.13
2018-02-19T05:18:03.903Z,51.90
2018-02-19T05:20:32.935Z,50.20
2018-02-19T05:23:01.205Z,42.73
2018-02-19T05:25:29.504Z,47.73
2018-02-19T05:27:57.776Z,46.73
2018-02-19T05:30:26.023Z,47.27
2018-02-19T05:32:54.555Z,49.43
2018-02-19T05:35:22.827Z,48.77
2018-02-19T05:37:51.883Z,44.37
2018-02-19T05:40:20.134Z,47.20
2018-02-19T05:42:48.403Z,44.27
2018-02-19T05:45:16.722Z,45.70
2018-02-19T05:47:45.031Z,44.80
2018-02-19T05:50:13.259Z,42.80
2018-02-19T05:52:41.520Z,44.47
2018-02-19T05:55:09.870Z,46.47
2018-02-19T05:57:38.160Z,46.50
2018-02-19T06:00:06.425Z,43.33
2018-02-19T06:02:35.468Z,47.37
2018-02-19T06:05:03.877Z,43.90
2018-02-19T06:07:32.120Z,42.87
2018-02-19T06:10:00.360Z,38.83
2018-02-19T06:12:28.740Z,39.97
2018-02-19T06:14:56.949Z,39.40
2018-02-19T06:17:25.207Z,38.27
2018-02-19T06:19:53.478Z,36.10
2018-02-19T06:22:21.759Z,34.63
2018-02-19T06:24:50.299Z,35.27
2018-02-19T06:27:19.418Z,34.70
2018-02-19T06:29:47.671Z,34.50
2018-02-19T06:32:16.699Z,35.67
2018-02-19T06:34:45.037Z,35.53
2018-02-19T06:37:14.047Z,33.93
2018-02-19T06:39:42.330Z,33.77
2018-02-19T06:42:10.586Z,36.67
2018-02-19T06:44:39.031Z,33.23
2018-02-19T06:47:07.290Z,32.70
2018-02-19T06:49:37.076Z,35.10
2018-02-19T06:52:05.323Z,35.10
2018-02-19T06:54:33.598Z,29.73
2018-02-19T06:57:01.891Z,32.80
2018-02-19T06:59:30.152Z,32.67
2018-02-19T07:01:58.391Z,32.37
2018-02-19T07:04:26.686Z,33.53
2018-02-19T07:06:55.766Z,30.63
2018-02-19T07:09:24.188Z,30.60
2018-02-19T07:11:53.366Z,27.63
2018-02-19T07:14:21.675Z,27.40
2018-02-19T07:16:49.924Z,29.33
2018-02-19T07:19:18.199Z,30.73
2018-02-19T07:21:46.484Z,28.20
2018-02-19T07:24:14.726Z,28.80
2018-02-19T07:26:43.743Z,26.83
2018-02-19T07:29:12.019Z,26.03
2018-02-19T07:31:40.404Z,27.93
2018-02-19T07:34:08.666Z,29.83
2018-02-19T07:36:36.967Z,29.00
2018-02-19T07:39:05.277Z,27.30
2018-02-19T07:41:33.530Z,26.40
2018-02-19T07:44:01.937Z,27.23
2018-02-19T07:46:30.314Z,27.70
2018-02-19T07:48:58.567Z,26.20
2018-02-19T07:51:26.976Z,25.87
2018-02-19T07:53:55.772Z,25.83
2018-02-19T07:56:24.198Z,26.40
2018-02-19T07:58:52.470Z,25.80
2018-02-19T08:01:20.745Z,26.87
2018-02-19T08:03:49.014Z,25.43
2018-02-19T08:06:17.385Z,25.47
2018-02-19T08:08:45.675Z,26.90
2018-02-19T08:11:14.014Z,26.83
2018-02-19T08:13:42.400Z,25.30
2018-02-19T08:16:10.641Z,23.87
2018-02-19T08:18:39.667Z,26.47
2018-02-19T08:21:07.947Z,27.77
2018-02-19T08:23:36.215Z,25.33
2018-02-19T08:26:04.883Z,24.73
2018-02-19T08:28:33.896Z,26.17
2018-02-19T08:31:02.179Z,25.67
2018-02-19T08:33:30.436Z,24.83
2018-02-19T08:35:58.723Z,25.57
2018-02-19T08:38:27.071Z,24.67
2018-02-19T08:40:56.215Z,26.80
2018-02-19T08:43:25.313Z,23.97
2018-02-19T08:45:53.704Z,26.20
2018-02-19T08:48:22.091Z,22.77
2018-02-19T08:50:50.407Z,24.47
2018-02-19T08:53:18.689Z,26.23
2018-02-19T08:55:47.795Z,25.20
2018-02-19T08:58:16.062Z,25.63
2018-02-19T09:00:44.319Z,25.27
2018-02-19T09:03:12.701Z,23.50
2018-02-19T09:05:40.982Z,25.87
2018-02-19T09:08:09.256Z,26.67
2018-02-19T09:10:38.320Z,24.23
2018-02-19T09:13:07.353Z,24.90
2018-02-19T09:15:35.663Z,25.93
2018-02-19T09:18:03.907Z,26.17
2018-02-19T09:20:32.231Z,26.07
2018-02-19T09:23:00.485Z,27.03
2018-02-19T09:25:28.808Z,29.27
2018-02-19T09:27:58.051Z,29.73
2018-02-19T09:30:26.283Z,29.10
2018-02-19T09:32:54.632Z,30.93
2018-02-19T09:35:23.003Z,28.83
2018-02-19T09:37:51.259Z,29.33
2018-02-19T09:40:19.619Z,28.87
2018-02-19T09:42:47.991Z,28.17
2018-02-19T09:45:16.273Z,29.00
2018-02-19T09:47:44.566Z,28.17
2018-02-19T09:50:13.747Z,29.83
2018-02-19T09:52:43.069Z,29.37
2018-02-19T09:55:11.340Z,28.70
2018-02-19T09:57:39.630Z,29.17
2018-02-19T10:00:07.868Z,30.30
2018-02-19T10:02:36.158Z,29.47
2018-02-19T10:05:04.415Z,27.70
2018-02-19T10:07:32.695Z,29.30
2018-02-19T10:10:01.105Z,28.07
2018-02-19T10:12:29.331Z,29.27
2018-02-19T10:14:57.638Z,29.43
2018-02-19T10:17:25.891Z,30.43
2018-02-19T10:19:54.143Z,30.83
2018-02-19T10:22:22.408Z,30.47
2018-02-19T10:24:50.686Z,30.33
2018-02-19T10:27:19.057Z,30.63
2018-02-19T10:29:48.096Z,28.87
2018-02-19T10:32:16.434Z,28.70
2018-02-19T10:34:44.832Z,30.73
2018-02-19T10:37:13.244Z,29.70
2018-02-19T10:39:41.509Z,29.07
2018-02-19T10:42:09.827Z,28.47
2018-02-19T10:44:38.199Z,29.30
2018-02-19T10:47:06.552Z,28.37
2018-02-19T10:49:34.914Z,30.37
2018-02-19T10:52:03.215Z,28.67
2018-02-19T10:54:32.255Z,28.43
2018-02-19T10:57:00.549Z,30.63
2018-02-19T10:59:28.962Z,29.27
2018-02-19T11:01:57.228Z,29.03
2018-02-19T11:04:25.753Z,29.13
2018-02-19T11:06:54.008Z,29.00
2018-02-19T11:09:23.127Z,31.00
2018-02-19T11:11:51.557Z,29.97
2018-02-19T11:14:19.815Z,30.43
2018-02-19T11:16:48.078Z,30.23
2018-02-19T11:19:16.492Z,30.03
2018-02-19T11:21:44.728Z,29.73
2018-02-19T11:24:13.253Z,31.60
2018-02-19T11:26:41.495Z,30.73
2018-02-19T11:29:09.792Z,30.33
2018-02-19T11:31:38.844Z,29.80
2018-02-19T11:34:07.114Z,29.07
2018-02-19T11:36:35.376Z,29.37
2018-02-19T11:39:03.647Z,31.17
2018-02-19T11:41:31.950Z,28.40
2018-02-19T11:44:00.207Z,28.80
2018-02-19T11:46:28.535Z,29.73
2018-02-19T11:48:56.776Z,29.40
2018-02-19T11:51:25.096Z,28.10
2018-02-19T11:53:53.331Z,28.83
2018-02-19T11:56:21.774Z,28.43
2018-02-19T11:58:50.211Z,27.90
2018-02-19T12:01:18.492Z,29.57
2018-02-19T12:03:46.743Z,30.03
2018-02-19T12:06:15.062Z,29.97
2018-02-19T12:08:44.100Z,29.30
2018-02-19T12:11:12.374Z,25.77
2018-02-19T12:13:40.679Z,29.17
2018-02-19T12:16:08.988Z,27.00
2018-02-19T12:18:38.000Z,28.27
2018-02-19T12:21:06.325Z,28.93
2018-02-19T12:23:34.615Z,26.30
2018-02-19T12:26:02.889Z,27.33
2018-02-19T12:28:31.221Z,28.40
2018-02-19T12:30:59.475Z,27.17
2018-02-19T12:33:27.859Z,28.17
2018-02-19T12:35:56.131Z,26.87
2018-02-19T12:38:24.387Z,27.90
2018-02-19T12:40:53.411Z,29.70
2018-02-19T12:43:21.694Z,29.37
2018-02-19T12:45:50.104Z,28.57
2018-02-19T12:48:19.164Z,28.80
2018-02-19T12:50:47.478Z,30.23
2018-02-19T12:53:16.584Z,28.63
2018-02-19T12:55:45.760Z,30.33
2018-02-19T12:58:14.193Z,27.63
2018-02-19T13:00:42.608Z,28.27
2018-02-19T13:03:10.865Z,30.70
2018-02-19T13:05:39.150Z,30.23
2018-02-19T13:08:07.617Z,30.27
2018-02-19T13:10:35.890Z,28.43
2018-02-19T13:13:04.215Z,29.67
2018-02-19T13:15:33.297Z,27.87
2018-02-19T13:18:02.423Z,27.13
2018-02-19T13:20:30.706Z,26.23
2018-02-19T13:22:58.965Z,28.40
2018-02-19T13:25:28.183Z,25.97
2018-02-19T13:27:56.466Z,27.70
2018-02-19T13:30:24.735Z,27.17
2018-02-19T13:32:53.123Z,28.37
2018-02-19T13:35:21.384Z,27.20
2018-02-19T13:37:49.708Z,27.03
2018-02-19T13:40:17.954Z,24.87
2018-02-19T13:42:46.211Z,26.33
2018-02-19T13:45:14.536Z,28.17
2018-02-19T13:47:42.818Z,24.97
2018-02-19T13:50:11.047Z,22.50
2018-02-19T13:52:39.318Z,25.50
2018-02-19T13:55:07.688Z,24.47
2018-02-19T13:57:35.922Z,24.50
2018-02-19T14:00:06.300Z,24.30
2018-02-19T14:02:34.551Z,24.03
2018-02-19T14:05:02.894Z,25.60
2018-02-19T14:07:31.146Z,22.87
2018-02-19T14:09:59.424Z,23.97
2018-02-19T14:12:27.691Z,24.07
2018-02-19T14:14:55.959Z,25.87
2018-02-19T14:17:24.273Z,25.60
2018-02-19T14:19:52.611Z,25.00
2018-02-19T14:22:20.869Z,24.87
2018-02-19T14:24:49.153Z,24.67
2018-02-19T14:27:17.515Z,25.13
2018-02-19T14:29:45.895Z,25.47
2018-02-19T14:32:14.150Z,24.60
2018-02-19T14:34:42.467Z,23.67
2018-02-19T14:37:10.707Z,25.70
2018-02-19T14:39:38.983Z,22.70
2018-02-19T14:42:08.083Z,26.83
2018-02-19T14:44:36.526Z,25.30
2018-02-19T14:47:04.789Z,24.70
2018-02-19T14:49:34.604Z,24.90
2018-02-19T14:52:02.898Z,23.57
2018-02-19T14:54:31.242Z,24.13
2018-02-19T14:56:59.512Z,24.70
2018-02-19T14:59:29.548Z,24.70
2018-02-19T15:01:57.793Z,24.90
2018-02-19T15:04:26.963Z,24.43
2018-02-19T15:06:56.794Z,24.17
2018-02-19T15:09:26.660Z,24.30
2018-02-19T15:11:54.963Z,24.03
2018-02-19T15:14:23.335Z,24.07
2018-02-19T15:16:51.718Z,22.43
2018-02-19T15:19:20.723Z,24.03
2018-02-19T15:21:49.019Z,23.43
2018-02-19T15:24:17.398Z,22.07
2018-02-19T15:26:45.672Z,22.60
2018-02-19T15:29:13.946Z,24.37
2018-02-19T15:31:42.215Z,23.50
2018-02-19T15:34:10.467Z,22.80
2018-02-19T15:36:38.750Z,24.40
2018-02-19T15:39:07.047Z,23.33
2018-02-19T15:41:35.307Z,23.17
2018-02-19T15:44:03.574Z,25.13
2018-02-19T15:46:31.910Z,25.13
2018-02-19T15:49:00.219Z,23.63
2018-02-19T15:51:28.488Z,24.93
2018-02-19T15:53:56.799Z,23.87
2018-02-19T15:56:25.165Z,23.63
2018-02-19T15:58:53.448Z,23.67
2018-02-19T16:01:21.770Z,24.80
2018-02-19T16:03:50.799Z,23.60
2018-02-19T16:06:19.152Z,22.60
2018-02-19T16:08:47.467Z,23.83
2018-02-19T16:11:15.709Z,24.63
2018-02-19T16:13:43.990Z,23.90
2018-02-19T16:16:12.377Z,25.00
2018-02-19T16:18:40.736Z,24.70
2018-02-19T16:21:09.819Z,24.57
2018-02-19T16:23:38.424Z,25.43
2018-02-19T16:26:06.917Z,23.70
2018-02-19T16:28:35.245Z,25.23
2018-02-19T16:31:04.282Z,25.47
2018-02-19T16:33:33.420Z,24.70
2018-02-19T16:36:01.672Z,24.70
2018-02-19T16:38:29.935Z,25.87
2018-02-19T16:40:58.220Z,24.40
2018-02-19T16:43:26.490Z,26.30
2018-02-19T16:45:54.743Z,24.30
2018-02-19T16:48:23.087Z,25.43
2018-02-19T16:50:51.384Z,25.20
2018-02-19T16:53:19.639Z,27.27
2018-02-19T16:55:47.924Z,26.23
2018-02-19T16:58:16.329Z,26.30
2018-02-19T17:00:45.347Z,24.90
2018-02-19T17:03:13.598Z,25.80
2018-02-19T17:05:42.213Z,26.00
2018-02-19T17:08:10.435Z,26.63
2018-02-19T17:10:38.704Z,26.17
2018-02-19T17:13:07.041Z,26.60
2018-02-19T17:15:35.384Z,26.00
2018-02-19T17:18:03.722Z,25.17
2018-02-19T17:20:31.982Z,27.10
2018-02-19T17:23:01.011Z,26.93
2018-02-19T17:25:29.403Z,27.17
2018-02-19T17:27:57.749Z,26.27
2018-02-19T17:30:26.774Z,26.30
2018-02-19T17:32:55.016Z,26.43
2018-02-19T17:35:23.356Z,26.40
2018-02-19T17:37:51.635Z,25.53
2018-02-19T17:40:19.882Z,24.83
2018-02-19T17:42:48.158Z,26.27
2018-02-19T17:45:16.576Z,27.00
2018-02-19T17:47:45.604Z,26.20
2018-02-19T17:50:13.927Z,25.70
2018-02-19T17:52:42.158Z,26.00
2018-02-19T17:55:11.380Z,27.40
2018-02-19T17:57:39.616Z,26.83
2018-02-19T18:00:07.909Z,26.67
2018-02-19T18:02:36.168Z,26.37
2018-02-19T18:05:04.448Z,26.20
2018-02-19T18:07:32.727Z,25.77
2018-02-19T18:10:01.011Z,26.80
2018-02-19T18:12:29.362Z,27.20
2018-02-19T18:14:57.664Z,26.27
2018-02-19T18:17:25.932Z,26.80
2018-02-19T18:19:54.293Z,28.73
2018-02-19T18:22:22.520Z,27.93
2018-02-19T18:24:50.797Z,26.90
2018-02-19T18:27:19.875Z,27.03
2018-02-19T18:29:48.180Z,25.80
2018-02-19T18:32:17.183Z,27.63
2018-02-19T18:34:45.641Z,27.07
2018-02-19T18:37:13.910Z,27.70
2018-02-19T18:39:42.168Z,27.10
2018-02-19T18:42:10.423Z,27.50
2018-02-19T18:44:38.871Z,27.00
2018-02-19T18:47:07.155Z,27.63
2018-02-19T18:49:35.544Z,27.23
2018-02-19T18:52:03.834Z,28.13
2018-02-19T18:54:32.099Z,27.20
2018-02-19T18:57:00.629Z,27.93
2018-02-19T18:59:29.518Z,28.60
2018-02-19T19:01:57.804Z,30.17
2018-02-19T19:04:26.819Z,29.87
2018-02-19T19:06:55.107Z,29.17
2018-02-19T19:09:36.083Z,28.90
2018-02-19T19:12:04.364Z,27.83
2018-02-19T19:14:32.688Z,28.03
2018-02-19T19:17:00.910Z,28.70
2018-02-19T19:19:29.436Z,29.00
2018-02-19T19:21:57.761Z,29.20
2018-02-19T19:24:26.040Z,32.20
2018-02-19T19:26:54.301Z,29.67
2018-02-19T19:29:23.321Z,30.93
2018-02-19T19:31:51.578Z,29.90
2018-02-19T19:34:19.879Z,30.20
2018-02-19T19:36:48.163Z,29.57
2018-02-19T19:39:16.475Z,28.70
2018-02-19T19:41:45.508Z,26.83
2018-02-19T19:44:13.821Z,27.40
2018-02-19T19:46:42.222Z,27.33
2018-02-19T19:49:11.308Z,27.53
2018-02-19T19:51:39.551Z,26.97
2018-02-19T19:54:08.717Z,28.73
2018-02-19T19:56:36.956Z,29.57
2018-02-19T19:59:06.000Z,28.83
2018-02-19T20:01:34.344Z,28.47
2018-02-19T20:04:03.412Z,27.50
2018-02-19T20:06:32.456Z,30.03
2018-02-19T20:09:00.896Z,29.50
2018-02-19T20:11:29.166Z,27.47
2018-02-19T20:13:58.198Z,28.17
2018-02-19T20:16:26.471Z,29.37
2018-02-19T20:18:54.732Z,28.47
2018-02-19T20:21:23.181Z,28.53
2018-02-19T20:23:51.426Z,28.83
2018-02-19T20:26:20.508Z,30.10
2018-02-19T20:28:48.784Z,29.87
2018-02-19T20:31:17.022Z,29.83
2018-02-19T20:33:45.407Z,27.73
2018-02-19T20:36:13.691Z,29.17
2018-02-19T20:38:41.968Z,28.30
2018-02-19T20:41:10.298Z,27.10
2018-02-19T20:43:39.384Z,29.67
2018-02-19T20:46:08.468Z,27.37
2018-02-19T20:48:37.865Z,27.23
2018-02-19T20:51:06.286Z,27.47
2018-02-19T20:53:34.659Z,28.13
2018-02-19T20:56:04.183Z,28.53
2018-02-19T20:58:32.625Z,29.60
2018-02-19T21:01:02.079Z,32.50
2018-02-19T21:03:30.603Z,36.93
2018-02-19T21:05:58.916Z,36.63
2018-02-19T21:08:27.978Z,34.17
2018-02-19T21:10:57.041Z,33.23
2018-02-19T21:13:25.346Z,30.33
2018-02-19T21:15:54.382Z,32.13
2018-02-19T21:18:22.652Z,31.20
2018-02-19T21:20:50.972Z,30.40
2018-02-19T21:23:19.229Z,32.17
2018-02-19T21:25:47.492Z,30.37
2018-02-19T21:28:15.876Z,31.87
2018-02-19T21:30:44.195Z,30.97
2018-02-19T21:33:12.474Z,31.13
2018-02-19T21:35:41.551Z,30.50
2018-02-19T21:38:09.781Z,29.77
2018-02-19T21:40:38.083Z,30.20
2018-02-19T21:43:06.359Z,29.57
2018-02-19T21:45:34.622Z,29.77
2018-02-19T21:48:02.926Z,29.77
2018-02-19T21:50:31.953Z,30.17
2018-02-19T21:53:00.225Z,30.27
2018-02-19T21:55:28.478Z,29.07
2018-02-19T21:57:57.561Z,29.27
2018-02-19T22:00:25.799Z,30.53
2018-02-19T22:02:54.082Z,31.93
2018-02-19T22:05:22.452Z,31.03
2018-02-19T22:07:50.752Z,32.83
2018-02-19T22:10:18.979Z,31.00
2018-02-19T22:12:47.238Z,29.90
2018-02-19T22:15:15.696Z,31.50
2018-02-19T22:17:44.719Z,30.30
2018-02-19T22:20:13.060Z,29.70
2018-02-19T22:22:42.144Z,30.40
2018-02-19T22:25:10.451Z,30.90
2018-02-19T22:27:38.714Z,30.90
2018-02-19T22:30:07.740Z,30.87
2018-02-19T22:32:36.110Z,30.83
2018-02-19T22:35:04.374Z,30.13
2018-02-19T22:37:32.755Z,31.50
2018-02-19T22:40:01.060Z,31.10
2018-02-19T22:42:29.303Z,29.33
2018-02-19T22:44:57.578Z,31.37
2018-02-19T22:47:26.587Z,31.20
2018-02-19T22:49:54.943Z,32.60
2018-02-19T22:52:23.207Z,30.87
2018-02-19T22:54:52.239Z,31.20
2018-02-19T22:57:20.512Z,30.93
2018-02-19T22:59:48.765Z,31.90
2018-02-19T23:02:17.050Z,29.40
2018-02-19T23:04:45.324Z,30.87
2018-02-19T23:07:13.574Z,30.53
2018-02-19T23:09:41.824Z,31.70
2018-02-19T23:12:10.351Z,30.47
2018-02-19T23:14:38.595Z,29.70
2018-02-19T23:17:07.660Z,30.27
2018-02-19T23:19:36.878Z,28.43
2018-02-19T23:22:05.161Z,30.47
2018-02-19T23:24:33.509Z,30.90
2018-02-19T23:27:01.787Z,30.50
2018-02-19T23:29:30.060Z,30.67
2018-02-19T23:31:58.320Z,29.77
2018-02-19T23:34:26.733Z,30.00
2018-02-19T23:36:55.047Z,32.07
2018-02-19T23:39:23.315Z,33.03
2018-02-19T23:41:51.612Z,31.70
2018-02-19T23:44:19.883Z,31.67
2018-02-19T23:46:48.176Z,30.03
2018-02-19T23:49:16.459Z,31.20
2018-02-19T23:51:44.816Z,33.30
2018-02-19T23:54:18.853Z,32.50
2018-02-19T23:56:47.111Z,35.30
2018-02-19T23:59:15.481Z,33.93
